createdAt,value
2023-03-04T05:07:42.776Z,-78
2023-03-04T05:12:56.821Z,-77
2023-03-04T05:15:25.745Z,-77
2023-03-04T05:17:54.564Z,-77
2023-03-04T05:22:53.801Z,-82
2023-03-04T05:25:22.188Z,-84
2023-03-04T05:27:50.408Z,-82
2023-03-04T05:30:19.618Z,-82
2023-03-04T05:32:48.105Z,-82
2023-03-04T05:35:16.674Z,-83
2023-03-04T05:37:44.960Z,-83
2023-03-04T05:40:15.948Z,-83
2023-03-04T05:42:44.201Z,-83
2023-03-04T05:45:13.279Z,-82
2023-03-04T05:47:42.272Z,-83
2023-03-04T05:50:12.625Z,-82
2023-03-04T05:52:41.139Z,-83
2023-03-04T05:55:10.522Z,-82
2023-03-04T05:57:40.479Z,-83
2023-03-04T06:00:10.931Z,-82
2023-03-04T06:02:39.778Z,-82
2023-03-04T06:05:09.451Z,-83
2023-03-04T06:07:38.261Z,-82
2023-03-04T06:10:08.006Z,-82
2023-03-04T06:12:36.706Z,-82
2023-03-04T06:15:10.155Z,-82
2023-03-04T06:17:40.702Z,-83
2023-03-04T06:20:12.649Z,-82
2023-03-04T06:22:41.214Z,-82
2023-03-04T06:25:10.349Z,-81
2023-03-04T06:27:39.031Z,-81
2023-03-04T06:30:11.230Z,-81
2023-03-04T06:32:40.861Z,-82
2023-03-04T06:35:10.085Z,-81
2023-03-04T06:37:38.622Z,-81
2023-03-04T06:40:07.881Z,-83
2023-03-04T06:42:36.408Z,-82
2023-03-04T06:45:06.170Z,-82
2023-03-04T06:47:36.150Z,-81
2023-03-04T06:50:05.076Z,-82
2023-03-04T06:52:33.844Z,-82
2023-03-04T06:55:02.105Z,-82
2023-03-04T06:57:30.881Z,-82
2023-03-04T06:59:59.568Z,-81
2023-03-04T07:02:28.261Z,-82
2023-03-04T07:04:57.979Z,-82
2023-03-04T07:07:27.488Z,-82
2023-03-04T07:09:56.291Z,-82
2023-03-04T07:12:24.618Z,-82
2023-03-04T07:14:52.898Z,-82
2023-03-04T07:17:21.181Z,-82
2023-03-04T07:19:50.501Z,-87
2023-03-04T07:22:22.372Z,-86
2023-03-04T07:24:51.250Z,-86
2023-03-04T07:27:20.168Z,-85
2023-03-04T07:29:49.029Z,-86
2023-03-04T07:32:17.812Z,-85
2023-03-04T07:34:46.331Z,-86
2023-03-04T07:37:15.165Z,-86
2023-03-04T07:39:45.450Z,-86
2023-03-04T07:42:14.000Z,-86
2023-03-04T07:44:44.141Z,-86
2023-03-04T07:47:12.637Z,-86
2023-03-04T07:49:41.232Z,-85
2023-03-04T07:52:10.875Z,-86
2023-03-04T07:54:39.228Z,-85
2023-03-04T07:57:09.505Z,-87
2023-03-04T07:59:38.011Z,-87
2023-03-04T08:02:07.168Z,-86
2023-03-04T08:04:35.889Z,-85
2023-03-04T08:07:04.558Z,-86
2023-03-04T08:09:33.703Z,-85
2023-03-04T08:12:03.139Z,-85
2023-03-04T08:14:35.362Z,-85
2023-03-04T08:17:03.918Z,-86
2023-03-04T08:19:34.878Z,-86
2023-03-04T08:22:03.300Z,-86
2023-03-04T08:24:32.002Z,-86
2023-03-04T08:27:00.525Z,-85
2023-03-04T08:29:29.097Z,-87
2023-03-04T08:31:59.728Z,-85
2023-03-04T08:34:30.246Z,-85
2023-03-04T08:37:00.121Z,-85
2023-03-04T08:39:29.428Z,-85
2023-03-04T08:41:58.685Z,-86
2023-03-04T08:44:27.833Z,-87
2023-03-04T08:46:56.543Z,-85
2023-03-04T08:49:26.866Z,-85
2023-03-04T08:51:55.321Z,-87
2023-03-04T08:54:23.933Z,-87
2023-03-04T08:56:52.872Z,-86
2023-03-04T08:59:21.506Z,-86
2023-03-04T09:01:50.087Z,-86
2023-03-04T09:04:18.600Z,-86
2023-03-04T09:06:48.558Z,-86
2023-03-04T09:09:16.882Z,-86
2023-03-04T09:11:47.562Z,-86
2023-03-04T09:14:16.516Z,-85
2023-03-04T09:16:47.175Z,-86
2023-03-04T09:19:15.607Z,-86
2023-03-04T09:21:44.127Z,-86
2023-03-04T09:24:14.510Z,-86
2023-03-04T09:26:43.095Z,-86
2023-03-04T09:29:13.383Z,-86
2023-03-04T09:31:43.165Z,-85
2023-03-04T09:34:11.450Z,-86
2023-03-04T09:36:40.170Z,-85
2023-03-04T09:39:09.168Z,-86
2023-03-04T09:41:43.109Z,-87
2023-03-04T09:44:17.605Z,-86
2023-03-04T09:46:47.701Z,-87
2023-03-04T09:49:16.785Z,-86
2023-03-04T09:51:59.047Z,-86
2023-03-04T09:54:35.515Z,-86
2023-03-04T09:57:19.698Z,-86
2023-03-04T09:59:53.302Z,-85
2023-03-04T10:02:29.261Z,-87
2023-03-04T10:05:01.997Z,-86
2023-03-04T10:07:35.116Z,-85
2023-03-04T10:10:07.069Z,-86
2023-03-04T10:12:40.291Z,-87
2023-03-04T10:15:20.370Z,-86
2023-03-04T10:17:53.813Z,-86
2023-03-04T10:20:24.951Z,-86
2023-03-04T10:22:54.461Z,-86
2023-03-04T10:25:26.665Z,-85
2023-03-04T10:27:58.017Z,-86
2023-03-04T10:30:34.566Z,-86
2023-03-04T10:33:04.201Z,-86
2023-03-04T10:35:36.657Z,-86
2023-03-04T10:38:05.673Z,-85
2023-03-04T10:40:40.266Z,-86
2023-03-04T10:43:19.158Z,-85
2023-03-04T10:45:49.004Z,-86
2023-03-04T10:48:25.325Z,-85
2023-03-04T10:50:53.750Z,-87
2023-03-04T10:53:34.852Z,-86
2023-03-04T10:56:03.535Z,-86
2023-03-04T10:58:34.092Z,-86
2023-03-04T11:01:06.032Z,-87
2023-03-04T11:03:37.419Z,-86
2023-03-04T11:06:18.019Z,-86
2023-03-04T11:08:47.826Z,-86
2023-03-04T11:11:31.258Z,-85
2023-03-04T11:14:03.148Z,-86
2023-03-04T11:16:34.949Z,-87
2023-03-04T11:19:07.392Z,-88
2023-03-04T11:21:41.931Z,-86
2023-03-04T11:24:27.453Z,-86
2023-03-04T11:27:01.603Z,-88
2023-03-04T11:29:34.767Z,-87
2023-03-04T11:32:07.886Z,-87
2023-03-04T11:34:40.741Z,-87
2023-03-04T11:37:15.478Z,-86
2023-03-04T11:39:48.180Z,-88
2023-03-04T11:42:25.218Z,-85
2023-03-04T11:44:55.530Z,-87
2023-03-04T11:47:46.055Z,-88
2023-03-04T11:50:38.911Z,-86
2023-03-04T11:53:26.030Z,-85
2023-03-04T11:56:10.972Z,-86
2023-03-04T11:59:04.488Z,-86
2023-03-04T12:01:41.146Z,-86
2023-03-04T12:04:28.765Z,-86
2023-03-04T12:07:07.212Z,-86
2023-03-04T12:09:44.564Z,-85
2023-03-04T12:12:30.259Z,-85
2023-03-04T12:15:08.378Z,-87
2023-03-04T12:17:45.713Z,-86
2023-03-04T12:20:29.436Z,-86
2023-03-04T12:23:04.731Z,-85
2023-03-04T12:25:45.475Z,-85
2023-03-04T12:28:42.230Z,-85
2023-03-04T12:31:39.205Z,-85
2023-03-04T12:34:37.649Z,-85
2023-03-04T12:37:25.969Z,-85
2023-03-04T12:40:10.104Z,-86
2023-03-04T12:42:45.126Z,-86
2023-03-04T12:45:20.387Z,-85
2023-03-04T12:47:57.119Z,-85
2023-03-04T12:50:43.836Z,-85
2023-03-04T12:53:19.482Z,-85
2023-03-04T12:55:50.002Z,-86
2023-03-04T12:58:20.380Z,-85
2023-03-04T13:00:54.499Z,-85
2023-03-04T13:03:28.006Z,-86
2023-03-04T13:06:13.165Z,-86
2023-03-04T13:08:52.313Z,-85
2023-03-04T13:11:47.629Z,-86
2023-03-04T13:14:37.328Z,-86
2023-03-04T13:17:43.101Z,-85
2023-03-04T13:20:22.740Z,-86
2023-03-04T13:22:59.512Z,-86
2023-03-04T13:25:36.499Z,-86
2023-03-04T13:28:22.515Z,-85
2023-03-04T13:31:20.820Z,-86
2023-03-04T13:34:06.186Z,-85
2023-03-04T13:36:37.601Z,-85
2023-03-04T13:39:26.313Z,-85
2023-03-04T13:41:56.948Z,-85
2023-03-04T13:45:04.511Z,-85
2023-03-04T13:47:47.215Z,-86
2023-03-04T13:50:31.914Z,-85
2023-03-04T13:53:23.877Z,-85
2023-03-04T14:03:36.477Z,-85
2023-03-04T14:07:23.649Z,-82
2023-03-04T14:10:59.693Z,-85
2023-03-04T14:14:28.971Z,-85
2023-03-04T14:18:01.153Z,-85
2023-03-04T14:21:30.465Z,-85
2023-03-04T14:25:07.502Z,-85
2023-03-04T14:28:43.991Z,-85
2023-03-04T14:32:17.566Z,-85
2023-03-04T14:35:51.449Z,-85
2023-03-04T14:39:25.715Z,-85
2023-03-04T14:42:57.257Z,-85
2023-03-04T14:46:25.542Z,-85
2023-03-04T14:49:55.789Z,-85
2023-03-04T14:53:55.356Z,-85
2023-03-04T14:57:30.492Z,-85
2023-03-04T15:01:05.496Z,-85
2023-03-04T15:04:34.931Z,-85
2023-03-04T15:08:07.316Z,-84
2023-03-04T15:11:47.572Z,-84
2023-03-04T15:15:45.712Z,-85
2023-03-04T15:19:27.327Z,-85
2023-03-04T15:23:09.968Z,-85
2023-03-04T15:26:40.255Z,-84
2023-03-04T15:30:17.404Z,-84
2023-03-04T15:33:44.747Z,-85
2023-03-04T15:37:20.453Z,-85
2023-03-04T15:40:48.042Z,-84
2023-03-04T15:44:17.689Z,-85
2023-03-04T15:47:45.167Z,-84
2023-03-04T15:51:15.669Z,-85
2023-03-04T15:54:47.607Z,-85
2023-03-04T15:58:25.732Z,-85
2023-03-04T16:01:53.120Z,-85
2023-03-04T16:05:21.614Z,-84
2023-03-04T16:08:53.070Z,-85
2023-03-04T16:12:22.935Z,-84
2023-03-04T16:15:50.951Z,-84
2023-03-04T16:19:18.166Z,-84
2023-03-04T16:22:46.871Z,-84
2023-03-04T16:26:18.983Z,-84
2023-03-04T16:29:46.944Z,-84
2023-03-04T16:33:15.121Z,-84
2023-03-04T16:36:43.881Z,-84
2023-03-04T16:40:22.337Z,-84
2023-03-04T16:43:49.581Z,-84
2023-03-04T16:47:16.970Z,-84
2023-03-04T16:50:44.987Z,-83
2023-03-04T16:54:28.347Z,-85
2023-03-04T16:57:58.060Z,-84
2023-03-04T17:01:28.614Z,-84
2023-03-04T17:04:58.419Z,-84
2023-03-04T17:08:27.269Z,-84
2023-03-04T17:11:57.496Z,-84
2023-03-04T17:15:27.658Z,-84
2023-03-04T17:18:56.058Z,-84
2023-03-04T17:22:26.350Z,-84
2023-03-04T17:25:56.797Z,-84
2023-03-04T17:29:24.486Z,-84
2023-03-04T17:32:53.244Z,-85
2023-03-04T17:36:21.081Z,-84
2023-03-04T17:39:49.886Z,-84
2023-03-04T17:43:17.856Z,-84
2023-03-04T17:46:45.359Z,-84
2023-03-04T17:50:14.654Z,-84
2023-03-04T17:53:42.302Z,-84
2023-03-04T17:57:11.361Z,-84
2023-03-04T18:00:38.632Z,-84
2023-03-04T18:04:05.883Z,-84
2023-03-04T18:07:34.393Z,-84
2023-03-04T18:11:01.443Z,-84
2023-03-04T18:14:29.247Z,-84
2023-03-04T18:17:56.497Z,-84
2023-03-04T18:21:26.084Z,-84
2023-03-04T18:24:55.526Z,-84
2023-03-04T18:28:22.705Z,-85
2023-03-04T18:31:51.466Z,-84
2023-03-04T18:35:19.613Z,-84
2023-03-04T18:38:47.115Z,-85
2023-03-04T18:42:16.306Z,-84
2023-03-04T18:45:43.432Z,-85
2023-03-04T18:49:11.541Z,-84
2023-03-04T18:52:38.917Z,-85
2023-03-04T18:56:11.374Z,-84
2023-03-04T18:59:44.186Z,-84
2023-03-04T19:03:15.497Z,-84
2023-03-04T19:06:42.826Z,-84
2023-03-04T19:10:10.924Z,-84
2023-03-04T19:13:38.424Z,-84
2023-03-04T19:17:08.482Z,-84
2023-03-04T19:20:37.908Z,-84
2023-03-04T19:24:05.694Z,-84
2023-03-04T19:27:33.999Z,-84
2023-03-04T19:31:06.064Z,-84
2023-03-04T19:34:37.816Z,-84
2023-03-04T19:38:05.988Z,-84
2023-03-04T19:41:33.573Z,-84
2023-03-04T19:45:09.377Z,-84
2023-03-04T19:48:39.024Z,-84
2023-03-04T19:52:14.037Z,-84
2023-03-04T19:55:43.547Z,-84
2023-03-04T19:59:10.865Z,-84
2023-03-04T20:02:38.362Z,-84
2023-03-04T20:06:10.081Z,-84
2023-03-04T20:09:38.066Z,-84
2023-03-04T20:13:05.903Z,-84
2023-03-04T20:16:33.869Z,-84
2023-03-04T20:20:01.660Z,-84
2023-03-04T20:23:30.833Z,-84
2023-03-04T20:26:58.067Z,-84
2023-03-04T20:30:25.576Z,-84
2023-03-04T20:33:53.542Z,-84
2023-03-04T20:37:21.990Z,-84
2023-03-04T20:40:50.898Z,-84
2023-03-04T20:44:18.158Z,-84
2023-03-04T20:47:46.031Z,-84
2023-03-04T20:51:13.516Z,-84
2023-03-04T20:54:41.644Z,-84
2023-03-04T20:58:10.867Z,-84
2023-03-04T21:01:38.924Z,-84
2023-03-04T21:05:07.229Z,-84
2023-03-04T21:08:34.432Z,-84
2023-03-04T21:12:02.230Z,-85
2023-03-04T21:15:31.848Z,-84
2023-03-04T21:19:00.120Z,-85
2023-03-04T21:22:29.190Z,-85
2023-03-04T21:25:56.735Z,-84
2023-03-04T21:29:25.126Z,-84
2023-03-04T21:32:55.428Z,-85
2023-03-04T21:36:23.026Z,-85
2023-03-04T21:39:50.369Z,-84
2023-03-04T21:43:22.971Z,-84
2023-03-04T21:46:56.573Z,-84
2023-03-04T21:50:24.242Z,-84
2023-03-04T21:53:51.378Z,-84
2023-03-04T21:57:18.923Z,-84
2023-03-04T22:00:46.659Z,-84
2023-03-04T22:04:16.126Z,-84
2023-03-04T22:07:43.133Z,-84
2023-03-04T22:11:12.963Z,-84
2023-03-04T22:14:40.363Z,-85
2023-03-04T22:18:08.553Z,-84
2023-03-04T22:21:38.948Z,-84
2023-03-04T22:25:07.345Z,-84
2023-03-04T22:28:34.588Z,-84
2023-03-04T22:32:02.619Z,-84
2023-03-04T22:35:30.347Z,-85
2023-03-04T22:38:59.101Z,-84
2023-03-04T22:42:26.617Z,-85
2023-03-04T22:46:00.208Z,-84
